Time;durP1;ratioP1;P1;durP2;ratioP2;P2;SDS_P1;SDS_P2;PMS_P1;PMS_P2;Temp;Humidity;BMP_temperature;BMP_pressure;BME280_temperature;BME280_humidity;BME280_pressure;Samples;Min_cycle;Max_cycle;Signal;HPM_P1;HPM_P2
2022/02/07 00:00:04;;;;;;;;;;;;;;;12.43;63.04;100384.00;1021882;29;754;-59
2022/02/07 00:01:22;;;;;;;;;;;;;;;12.42;63.61;100397.47;1021885;29;662;-59
2022/02/07 00:02:11;;;;;;;;;;;;;;;12.42;63.25;100390.31;1017999;29;781;-60
2022/02/07 00:03:55;;;;;;;;;;;;;;;12.43;62.46;100417.88;1017865;29;667;-59
2022/02/07 00:04:47;;;;;;;;;;;;;;;12.43;62.29;100404.53;1018450;29;728;-59
2022/02/07 00:05:37;;;;;;;;;;;;;;;12.44;62.02;100414.25;1018256;29;789;-59
2022/02/07 00:06:28;;;;;;;;;;;;;;;12.43;63.13;100416.06;1018417;29;761;-59
2022/02/07 00:07:19;;;;;;;;;;;;;;;12.42;62.78;100414.34;1018912;28;790;-60
2022/02/07 00:08:10;;;;;;;;;;;;;;;12.42;63.45;100414.34;1018311;29;810;-61
2022/02/07 00:09:01;;;;;;;;;;;;;;;12.43;63.14;100425.91;1018431;29;783;-59
2022/02/07 00:09:51;;;;;;;;;;;;;;;12.42;62.70;100413.50;1018833;28;1147;-59
2022/02/07 00:10:42;;;;;;;;;;;;;;;12.41;62.57;100423.34;1019048;28;542;-59
2022/02/07 00:11:34;;;;;;;;;;;;;;;12.40;63.10;100420.78;1018198;29;788;-60
2022/02/07 00:12:24;;;;;;;;;;;;;;;12.40;63.15;100418.13;1018365;29;678;-59
2022/02/07 00:13:15;;;;;;;;;;;;;;;12.41;63.16;100433.19;1019079;28;698;-59
2022/02/07 00:14:05;;;;;;;;;;;;;;;12.41;63.33;100443.88;1018880;29;722;-60
2022/02/07 00:14:56;;;;;;;;;;;;;;;12.39;63.37;100430.63;1017095;29;677;-61
2022/02/07 00:15:46;;;;;;;;;;;;;;;12.40;63.87;100442.16;1016185;29;769;-60
2022/02/07 00:16:37;;;;;;;;;;;;;;;12.39;63.52;100438.66;1012281;29;799;-60
2022/02/07 00:17:27;;;;;;;;;;;;;;;12.39;63.61;100452.00;1013585;29;759;-60
2022/02/07 00:18:18;;;;;;;;;;;;;;;12.40;63.29;100459.06;1016520;29;712;-60
2022/02/07 00:19:12;;;;;;;;;;;;;;;12.39;63.37;100468.03;1017155;29;1890;-60
2022/02/07 00:20:07;;;;;;;;;;;;;;;12.41;62.50;100508.84;1017200;29;842;-60
2022/02/07 00:20:58;;;;;;;;;;;;;;;12.40;63.67;100500.97;1017226;29;707;-60
2022/02/07 00:21:49;;;;;;;;;;;;;;;12.40;63.44;100493.78;1017190;29;941;-60
2022/02/07 00:22:40;;;;;;;;;;;;;;;12.43;61.81;100527.44;1016582;29;658;-60
2022/02/07 00:23:30;;;;;;;;;;;;;;;12.41;62.91;100530.22;1012486;29;747;-60
2022/02/07 00:24:21;;;;;;;;;;;;;;;12.40;62.45;100533.88;1013110;29;835;-60
2022/02/07 00:25:11;;;;;;;;;;;;;;;12.41;62.58;100524.03;1016637;29;743;-59
2022/02/07 00:26:01;;;;;;;;;;;;;;;12.42;63.23;100536.44;1017175;29;753;-60
2022/02/07 00:26:52;;;;;;;;;;;;;;;12.40;63.62;100541.88;1017190;29;620;-60
2022/02/07 00:27:42;;;;;;;;;;;;;;;12.41;61.98;100545.41;1017453;29;1802;-60
2022/02/07 00:28:33;;;;;;;;;;;;;;;12.41;63.04;100542.75;1017513;29;1334;-60
2022/02/07 00:29:23;;;;;;;;;;;;;;;12.39;63.03;100526.81;1017109;29;947;-59
2022/02/07 00:30:14;;;;;;;;;;;;;;;12.39;62.52;100534.00;1017173;29;800;-61
2022/02/07 00:31:04;;;;;;;;;;;;;;;12.40;63.52;100533.03;1017244;29;730;-60
2022/02/07 00:31:54;;;;;;;;;;;;;;;12.40;62.89;100543.72;1017064;29;831;-60
2022/02/07 00:32:45;;;;;;;;;;;;;;;12.41;63.16;100540.06;1017614;29;722;-60
2022/02/07 00:33:35;;;;;;;;;;;;;;;12.42;61.46;100544.44;1012960;29;616;-60
2022/02/07 00:34:26;;;;;;;;;;;;;;;12.41;63.04;100535.56;1013457;29;940;-60
2022/02/07 00:35:18;;;;;;;;;;;;;;;12.40;62.97;100546.38;1017108;29;753;-60
2022/02/07 00:36:13;;;;;;;;;;;;;;;12.39;63.63;100558.03;1017162;29;1631;-60
2022/02/07 00:37:04;;;;;;;;;;;;;;;12.40;63.00;100554.41;1021598;29;733;-60
2022/02/07 00:37:57;;;;;;;;;;;;;;;12.41;63.42;100558.78;1021652;29;731;-60
2022/02/07 00:38:51;;;;;;;;;;;;;;;12.39;62.92;100558.88;1021556;29;840;-61
2022/02/07 00:39:54;;;;;;;;;;;;;;;12.40;63.56;100555.25;1021705;29;666;-60
2022/02/07 00:41:49;;;;;;;;;;;;;;;12.39;63.65;100548.19;1020656;29;706;-59
2022/02/07 00:42:51;;;;;;;;;;;;;;;12.39;62.73;100550.88;1020968;29;891;-59
2022/02/07 00:43:44;;;;;;;;;;;;;;;12.39;62.88;100560.72;1021455;29;914;-58
2022/02/07 00:44:36;;;;;;;;;;;;;;;12.38;63.91;100562.53;1021629;29;674;-59
2022/02/07 00:46:23;;;;;;;;;;;;;;;12.38;63.46;100573.22;1020563;29;796;-59
2022/02/07 00:47:15;;;;;;;;;;;;;;;12.40;63.44;100575.78;1021430;29;968;-59
2022/02/07 00:48:06;;;;;;;;;;;;;;;12.39;62.70;100574.06;1021565;29;917;-59
2022/02/07 00:48:56;;;;;;;;;;;;;;;12.39;63.45;100574.94;1021556;29;857;-59
2022/02/07 00:49:46;;;;;;;;;;;;;;;12.39;63.10;100569.59;1021663;29;710;-58
2022/02/07 00:50:37;;;;;;;;;;;;;;;12.38;63.26;100570.56;1021659;29;603;-59
2022/02/07 00:51:27;;;;;;;;;;;;;;;12.40;63.12;100581.13;1021378;29;1683;-58
2022/02/07 00:52:18;;;;;;;;;;;;;;;12.39;62.61;100574.06;1021647;29;760;-59
2022/02/07 00:53:11;;;;;;;;;;;;;;;12.40;63.43;100581.13;1016779;29;769;-59
2022/02/07 00:54:02;;;;;;;;;;;;;;;12.40;63.00;100586.47;1017898;29;710;-58
2022/02/07 00:54:52;;;;;;;;;;;;;;;12.40;62.99;100584.66;1017070;29;721;-59
2022/02/07 00:55:42;;;;;;;;;;;;;;;12.39;62.70;100587.44;1017162;29;971;-59
2022/02/07 00:56:33;;;;;;;;;;;;;;;12.39;62.95;100588.28;1017017;29;761;-59
2022/02/07 00:57:23;;;;;;;;;;;;;;;12.39;63.01;100584.75;1017067;29;736;-59
2022/02/07 00:58:14;;;;;;;;;;;;;;;12.39;62.93;100584.75;1017035;29;777;-59
2022/02/07 00:59:04;;;;;;;;;;;;;;;12.39;63.75;100584.75;1017035;29;1910;-59
2022/02/07 00:59:54;;;;;;;;;;;;;;;12.39;63.20;100590.97;1017183;29;790;-59
2022/02/07 01:00:45;;;;;;;;;;;;;;;12.39;63.12;100587.44;1017097;29;683;-59
2022/02/07 01:01:35;;;;;;;;;;;;;;;12.40;63.78;100599.81;1017027;29;782;-59
2022/02/07 01:02:26;;;;;;;;;;;;;;;12.40;62.76;100591.81;1017014;29;615;-59
2022/02/07 01:03:17;;;;;;;;;;;;;;;12.40;63.19;100591.81;1017122;29;730;-59
2022/02/07 01:04:07;;;;;;;;;;;;;;;12.39;62.60;100607.00;1017121;29;853;-59
2022/02/07 01:04:58;;;;;;;;;;;;;;;12.40;63.05;100605.19;1017167;29;746;-60
2022/02/07 01:05:48;;;;;;;;;;;;;;;12.42;63.80;100603.25;1016997;29;852;-59
2022/02/07 01:06:39;;;;;;;;;;;;;;;12.42;63.83;100604.09;1020134;29;1923;-59
2022/02/07 01:07:30;;;;;;;;;;;;;;;12.43;63.70;100613.81;1021559;29;692;-59
2022/02/07 01:08:28;;;;;;;;;;;;;;;12.43;63.97;100610.28;1021486;29;784;-60
2022/02/07 01:09:23;;;;;;;;;;;;;;;12.42;64.24;100606.75;1021020;29;744;-60
2022/02/07 01:10:17;;;;;;;;;;;;;;;12.42;63.80;100611.25;1016601;29;950;-60
2022/02/07 01:11:35;;;;;;;;;;;;;;;12.41;62.56;100609.56;1017271;29;739;-60
2022/02/07 01:13:18;;;;;;;;;;;;;;;12.41;63.01;100614.91;1020864;29;808;-60
2022/02/07 01:14:09;;;;;;;;;;;;;;;12.39;63.75;100623.03;1020214;29;1017;-60
2022/02/07 01:15:19;;;;;;;;;;;;;;;12.38;63.08;100617.78;1021546;29;722;-60
2022/02/07 01:16:30;;;;;;;;;;;;;;;12.39;62.82;100620.34;1021473;29;814;-60
2022/02/07 01:18:45;;;;;;;;;;;;;;;12.37;63.60;100626.78;1020540;29;743;-59
2022/02/07 01:21:11;;;;;;;;;;;;;;;12.40;62.80;100639.91;1017936;29;1663;-60
2022/02/07 01:23:19;;;;;;;;;;;;;;;12.37;62.15;100645.47;1018196;29;846;-60
2022/02/07 01:48:58;;;;;;;;;;;;;;;12.23;62.44;100765.91;1018356;29;687;-60
2022/02/07 01:51:48;;;;;;;;;;;;;;;12.22;62.44;100780.22;1018243;29;1296;-60
2022/02/07 01:54:08;;;;;;;;;;;;;;;12.22;62.52;100794.44;1017610;29;856;-60
2022/02/07 01:55:31;;;;;;;;;;;;;;;12.22;62.52;100796.25;1018280;29;808;-60
2022/02/07 01:56:12;;;;;;;;;;;;;;;12.24;62.41;100800.53;1018188;29;892;-60
2022/02/07 01:57:04;;;;;;;;;;;;;;;12.24;62.43;100795.19;1018316;29;743;-60
2022/02/07 01:57:54;;;;;;;;;;;;;;;12.24;63.51;100805.00;1018160;29;890;-60
2022/02/07 01:58:45;;;;;;;;;;;;;;;12.26;63.15;100811.09;1018129;29;1149;-60
2022/02/07 01:59:35;;;;;;;;;;;;;;;12.26;63.45;100809.28;1018259;29;660;-61
2022/02/07 02:00:26;;;;;;;;;;;;;;;12.26;62.34;100803.09;1018173;29;772;-60
2022/02/07 02:01:16;;;;;;;;;;;;;;;12.27;62.21;100807.47;1019148;29;1523;-61
2022/02/07 02:02:07;;;;;;;;;;;;;;;12.25;62.20;100814.75;1021181;29;883;-61
2022/02/07 02:02:57;;;;;;;;;;;;;;;12.26;62.36;100824.47;1020200;29;1853;-61
2022/02/07 02:03:48;;;;;;;;;;;;;;;12.25;62.06;100820.09;1018232;29;667;-60
2022/02/07 02:04:38;;;;;;;;;;;;;;;12.26;62.11;100825.31;1018217;29;623;-60
2022/02/07 02:05:31;;;;;;;;;;;;;;;12.24;62.44;100821.03;1018181;29;646;-58
2022/02/07 02:06:21;;;;;;;;;;;;;;;12.25;61.44;100831.63;1018712;29;840;-58
2022/02/07 02:07:11;;;;;;;;;;;;;;;12.24;61.91;100827.25;1018293;29;690;-59
2022/02/07 02:08:02;;;;;;;;;;;;;;;12.24;61.10;100831.72;1018352;29;747;-59
2022/02/07 02:08:54;;;;;;;;;;;;;;;12.21;63.12;100839.97;1018248;29;643;-59
2022/02/07 02:09:45;;;;;;;;;;;;;;;12.22;62.58;100839.84;1018798;29;718;-59
2022/02/07 02:10:36;;;;;;;;;;;;;;;12.23;61.48;100835.38;1018124;29;844;-58
2022/02/07 02:11:26;;;;;;;;;;;;;;;12.22;62.73;100845.19;1018781;29;702;-58
2022/02/07 02:12:17;;;;;;;;;;;;;;;12.22;62.91;100839.00;1018274;29;731;-58
2022/02/07 02:13:11;;;;;;;;;;;;;;;12.21;62.31;100843.50;1018182;29;834;-59
2022/02/07 02:16:11;;;;;;;;;;;;;;;12.24;62.13;100853.09;1019170;28;831;-59
2022/02/07 02:34:03;;;;;;;;;;;;;;;12.13;62.21;100913.50;1022510;29;732;-58
2022/02/07 02:38:05;;;;;;;;;;;;;;;12.16;62.29;100921.31;1013888;29;858;-59
2022/02/07 02:45:36;;;;;;;;;;;;;;;12.12;61.93;100935.84;1016856;29;800;-59
2022/02/07 02:46:28;;;;;;;;;;;;;;;12.13;62.48;100934.03;1018644;29;701;-59
2022/02/07 02:47:25;;;;;;;;;;;;;;;12.13;62.46;100936.69;1018618;29;745;-59
2022/02/07 02:48:24;;;;;;;;;;;;;;;12.17;61.95;100940.88;1021934;29;898;-59
2022/02/07 02:49:14;;;;;;;;;;;;;;;12.15;62.01;100945.47;1022058;29;755;-59
2022/02/07 02:50:15;;;;;;;;;;;;;;;12.16;61.61;100940.00;1021964;29;746;-59
2022/02/07 02:51:08;;;;;;;;;;;;;;;12.16;62.31;100948.03;1021879;29;1699;-59
2022/02/07 02:51:58;;;;;;;;;;;;;;;12.15;61.94;100951.66;1023131;28;754;-59
2022/02/07 02:52:48;;;;;;;;;;;;;;;12.13;62.56;100953.59;1023125;28;721;-59
2022/02/07 02:53:39;;;;;;;;;;;;;;;12.13;61.92;100950.91;1023212;28;690;-59
2022/02/07 02:54:29;;;;;;;;;;;;;;;12.14;62.22;100962.44;1023005;28;788;-59
2022/02/07 02:55:20;;;;;;;;;;;;;;;12.14;62.20;100954.44;1023209;28;815;-59
2022/02/07 02:56:10;;;;;;;;;;;;;;;12.14;61.50;100965.97;1023021;28;1683;-60
2022/02/07 02:57:00;;;;;;;;;;;;;;;12.15;60.85;100954.34;1019221;29;784;-59
2022/02/07 02:57:51;;;;;;;;;;;;;;;12.13;61.98;100961.59;1019298;29;670;-59
2022/02/07 02:58:41;;;;;;;;;;;;;;;12.13;62.14;100969.59;1019029;29;915;-59
2022/02/07 02:59:32;;;;;;;;;;;;;;;12.13;61.89;100963.41;1017542;29;752;-59
2022/02/07 03:00:22;;;;;;;;;;;;;;;12.12;61.87;100970.56;1017534;29;751;-59
2022/02/07 03:01:13;;;;;;;;;;;;;;;12.13;61.41;100960.75;1017619;29;708;-59
2022/02/07 03:02:03;;;;;;;;;;;;;;;12.13;61.80;100971.44;1017498;29;797;-59
2022/02/07 03:02:53;;;;;;;;;;;;;;;12.14;62.56;100975.81;1016610;29;741;-60
2022/02/07 03:03:44;;;;;;;;;;;;;;;12.12;62.42;100967.03;1017404;29;789;-58
2022/02/07 03:04:34;;;;;;;;;;;;;;;12.13;62.08;100968.75;1016380;29;845;-60
2022/02/07 03:05:25;;;;;;;;;;;;;;;12.11;61.81;100976.88;1017653;29;665;-59
2022/02/07 03:06:16;;;;;;;;;;;;;;;12.12;61.95;100991.09;1017562;29;732;-59
2022/02/07 03:07:06;;;;;;;;;;;;;;;12.11;62.12;100989.38;1016904;29;1721;-60
2022/02/07 03:07:57;;;;;;;;;;;;;;;12.11;60.29;100989.38;1022051;29;716;-60
2022/02/07 03:08:48;;;;;;;;;;;;;;;12.10;60.70;100996.53;1021961;29;854;-59
2022/02/07 03:09:46;;;;;;;;;;;;;;;12.09;61.43;100993.97;1021433;29;680;-59
2022/02/07 03:10:46;;;;;;;;;;;;;;;12.07;61.92;101001.22;1022050;29;622;-60
2022/02/07 03:11:36;;;;;;;;;;;;;;;12.07;61.32;101002.06;1021383;29;682;-59
2022/02/07 03:12:28;;;;;;;;;;;;;;;12.07;61.29;101001.22;1022082;29;642;-60
2022/02/07 03:14:20;;;;;;;;;;;;;;;12.07;61.08;101009.22;1020744;29;725;-60
2022/02/07 03:16:38;;;;;;;;;;;;;;;12.08;61.20;101013.63;1020969;29;745;-60
2022/02/07 03:17:29;;;;;;;;;;;;;;;12.07;60.92;101015.44;1020841;29;1033;-59
2022/02/07 03:18:19;;;;;;;;;;;;;;;12.08;61.43;101025.16;1021885;29;737;-59
2022/02/07 03:19:10;;;;;;;;;;;;;;;12.08;61.67;101009.13;1021755;29;1891;-59
2022/02/07 03:20:00;;;;;;;;;;;;;;;12.08;61.36;101026.97;1018538;29;693;-59
2022/02/07 03:20:51;;;;;;;;;;;;;;;12.08;61.32;101025.16;1019067;28;721;-59
2022/02/07 03:21:41;;;;;;;;;;;;;;;12.07;60.72;101028.78;1019219;28;814;-59
2022/02/07 03:22:31;;;;;;;;;;;;;;;12.07;61.37;101031.47;1019116;28;637;-59
2022/02/07 03:23:22;;;;;;;;;;;;;;;12.05;61.28;101030.72;1018899;28;751;-61
2022/02/07 03:24:12;;;;;;;;;;;;;;;12.07;60.55;101025.25;1019138;28;778;-59
2022/02/07 03:25:03;;;;;;;;;;;;;;;12.06;61.13;101024.41;1019030;28;750;-59
2022/02/07 03:25:53;;;;;;;;;;;;;;;12.07;61.56;101033.28;1019034;28;731;-60
2022/02/07 03:26:44;;;;;;;;;;;;;;;12.04;62.16;101038.81;1019040;28;688;-58
2022/02/07 03:27:34;;;;;;;;;;;;;;;12.03;61.73;101043.31;1018488;29;846;-60
2022/02/07 03:28:24;;;;;;;;;;;;;;;12.03;61.12;101047.78;1017376;29;620;-59
2022/02/07 03:29:15;;;;;;;;;;;;;;;12.02;61.05;101052.28;1017336;29;702;-59
2022/02/07 03:30:05;;;;;;;;;;;;;;;12.02;60.38;101040.75;1017350;29;808;-59
2022/02/07 03:30:56;;;;;;;;;;;;;;;12.03;60.15;101040.63;1017546;29;735;-59
2022/02/07 03:31:46;;;;;;;;;;;;;;;12.03;61.33;101054.00;1017311;29;869;-59
2022/02/07 03:32:37;;;;;;;;;;;;;;;12.02;61.77;101056.75;1017492;29;663;-59
2022/02/07 03:33:27;;;;;;;;;;;;;;;12.02;61.56;101059.44;1017221;29;643;-59
2022/02/07 03:34:18;;;;;;;;;;;;;;;12.00;60.71;101056.88;1017030;29;785;-60
2022/02/07 03:35:08;;;;;;;;;;;;;;;12.00;60.56;101070.22;1017917;29;657;-60
2022/02/07 03:35:59;;;;;;;;;;;;;;;12.01;60.31;101066.59;1017430;29;854;-59
2022/02/07 03:36:49;;;;;;;;;;;;;;;12.00;61.52;101062.19;1017387;29;647;-60
2022/02/07 03:37:40;;;;;;;;;;;;;;;12.00;60.90;101064.88;1017451;29;694;-59
2022/02/07 03:38:30;;;;;;;;;;;;;;;12.00;61.55;101078.22;1017254;29;708;-59
2022/02/07 03:39:21;;;;;;;;;;;;;;;12.00;61.52;101080.06;1020313;29;1954;-60
2022/02/07 03:40:11;;;;;;;;;;;;;;;12.01;60.99;101077.28;1021731;29;802;-60
2022/02/07 03:41:01;;;;;;;;;;;;;;;12.01;61.20;101085.28;1021802;29;702;-61
2022/02/07 03:41:52;;;;;;;;;;;;;;;12.01;61.34;101084.44;1021892;29;661;-60
2022/02/07 03:42:42;;;;;;;;;;;;;;;12.01;61.84;101093.31;1021879;29;677;-59
2022/02/07 03:43:33;;;;;;;;;;;;;;;12.03;61.42;101087.84;1021712;29;1398;-59
2022/02/07 03:44:23;;;;;;;;;;;;;;;12.05;60.90;101093.97;1021744;29;869;-60
2022/02/07 03:45:14;;;;;;;;;;;;;;;12.06;60.94;101093.84;1021878;29;785;-59
2022/02/07 03:46:04;;;;;;;;;;;;;;;12.04;60.58;101098.44;1021824;29;814;-60
2022/02/07 03:46:54;;;;;;;;;;;;;;;12.05;61.38;101102.81;1021496;29;1784;-60
2022/02/07 03:47:45;;;;;;;;;;;;;;;12.05;60.70;101110.84;1021900;29;698;-60
2022/02/07 03:48:35;;;;;;;;;;;;;;;12.04;59.93;101109.13;1021757;29;799;-61
2022/02/07 03:49:26;;;;;;;;;;;;;;;12.02;61.21;101120.88;1021337;29;639;-60
2022/02/07 03:50:16;;;;;;;;;;;;;;;12.02;61.74;101127.06;1021785;29;1430;-59
2022/02/07 03:51:06;;;;;;;;;;;;;;;12.02;59.98;101124.41;1021549;29;1248;-59
2022/02/07 03:51:57;;;;;;;;;;;;;;;12.00;61.30;101123.63;1021815;29;711;-59
2022/02/07 03:52:47;;;;;;;;;;;;;;;12.00;61.01;101128.97;1021733;29;843;-59
2022/02/07 03:53:38;;;;;;;;;;;;;;;12.00;61.57;101128.97;1017798;29;710;-60
2022/02/07 03:54:28;;;;;;;;;;;;;;;12.00;61.37;101128.97;1017332;29;707;-59
2022/02/07 03:55:19;;;;;;;;;;;;;;;12.00;60.84;101128.16;1017450;29;753;-59
2022/02/07 03:56:09;;;;;;;;;;;;;;;12.01;61.00;101138.72;1016758;29;716;-60
2022/02/07 03:56:59;;;;;;;;;;;;;;;12.01;60.93;101143.19;1017203;29;835;-60
2022/02/07 03:57:50;;;;;;;;;;;;;;;12.02;60.99;101145.75;1017423;29;630;-59
2022/02/07 03:58:40;;;;;;;;;;;;;;;12.02;61.25;101145.75;1017224;29;1464;-59
2022/02/07 03:59:31;;;;;;;;;;;;;;;12.02;60.28;101161.78;1017401;29;706;-58
2022/02/07 04:00:21;;;;;;;;;;;;;;;12.04;60.67;101148.34;1017853;29;732;-59
2022/02/07 04:01:12;;;;;;;;;;;;;;;12.04;60.60;101157.22;1017234;29;852;-59
2022/02/07 04:02:02;;;;;;;;;;;;;;;12.04;60.61;101149.19;1016580;29;805;-59
2022/02/07 04:02:54;;;;;;;;;;;;;;;12.03;60.76;101163.50;1017922;29;648;-58
2022/02/07 04:03:44;;;;;;;;;;;;;;;12.03;60.81;101163.50;1017765;29;720;-59
2022/02/07 04:04:35;;;;;;;;;;;;;;;12.02;61.21;101169.81;1017309;29;615;-59
2022/02/07 04:06:28;;;;;;;;;;;;;;;12.01;60.92;101170.75;1019000;29;1390;-60
2022/02/07 04:07:19;;;;;;;;;;;;;;;12.00;61.45;101174.38;1021618;29;796;-60
2022/02/07 04:08:11;;;;;;;;;;;;;;;11.99;61.11;101171.84;1022379;29;683;-59
2022/02/07 04:09:06;;;;;;;;;;;;;;;11.98;61.64;101179.00;1022273;29;709;-59
2022/02/07 04:09:57;;;;;;;;;;;;;;;12.00;61.04;101182.41;1021689;29;803;-59
2022/02/07 04:11:14;;;;;;;;;;;;;;;12.01;60.48;101194.78;1022293;29;627;-59
2022/02/07 04:12:08;;;;;;;;;;;;;;;11.99;61.07;101202.09;1021726;29;792;-60
2022/02/07 04:13:02;;;;;;;;;;;;;;;11.98;61.72;101197.69;1022257;29;812;-59
2022/02/07 04:13:55;;;;;;;;;;;;;;;12.00;61.19;101203.75;1022097;29;913;-59
2022/02/07 04:14:45;;;;;;;;;;;;;;;12.03;60.38;101216.06;1022383;29;676;-59
2022/02/07 04:15:36;;;;;;;;;;;;;;;12.02;60.65;101215.22;1021617;29;738;-59
2022/02/07 04:16:35;;;;;;;;;;;;;;;12.02;60.84;101223.22;1021637;29;757;-59
2022/02/07 04:17:28;;;;;;;;;;;;;;;12.01;60.83;101213.50;1021655;29;634;-59
2022/02/07 04:18:19;;;;;;;;;;;;;;;12.00;60.21;101219.78;1022123;29;786;-59
2022/02/07 04:19:21;;;;;;;;;;;;;;;11.99;60.35;101222.59;1017633;29;1898;-58
2022/02/07 04:20:11;;;;;;;;;;;;;;;11.99;60.20;101223.44;1017137;29;865;-59
2022/02/07 04:21:02;;;;;;;;;;;;;;;11.98;60.62;101227.06;1017328;29;727;-58
2022/02/07 04:21:54;;;;;;;;;;;;;;;11.96;61.58;101226.31;1017148;29;748;-59
2022/02/07 04:22:44;;;;;;;;;;;;;;;11.95;60.57;101237.94;1017786;29;611;-59
2022/02/07 04:23:34;;;;;;;;;;;;;;;11.96;60.23;101237.00;1017109;29;761;-59
2022/02/07 04:24:25;;;;;;;;;;;;;;;11.98;60.42;101240.44;1013127;29;653;-59
2022/02/07 04:25:15;;;;;;;;;;;;;;;11.97;61.37;101241.38;1012953;29;635;-59
2022/02/07 04:26:06;;;;;;;;;;;;;;;11.98;61.52;101239.56;1017201;29;1674;-59
2022/02/07 04:26:56;;;;;;;;;;;;;;;11.98;61.07;101244.91;1017802;29;790;-59
2022/02/07 04:27:46;;;;;;;;;;;;;;;11.99;61.75;101249.31;1018315;29;603;-59
2022/02/07 04:28:37;;;;;;;;;;;;;;;11.99;61.34;101254.63;1018223;29;1035;-59
2022/02/07 04:29:27;;;;;;;;;;;;;;;12.01;62.15;101258.91;1018326;29;631;-59
2022/02/07 04:30:18;;;;;;;;;;;;;;;12.02;60.78;101251.75;1018255;29;796;-60
2022/02/07 04:31:08;;;;;;;;;;;;;;;12.01;61.01;101248.22;1018328;29;710;-60
2022/02/07 04:31:59;;;;;;;;;;;;;;;12.01;60.94;101256.22;1018315;28;784;-60
2022/02/07 04:32:49;;;;;;;;;;;;;;;12.00;61.74;101248.34;1018323;29;642;-60
2022/02/07 04:33:39;;;;;;;;;;;;;;;12.01;60.94;101256.22;1018296;29;679;-61
2022/02/07 04:34:30;;;;;;;;;;;;;;;12.01;61.30;101260.72;1018172;29;860;-60
2022/02/07 04:35:20;;;;;;;;;;;;;;;12.02;61.28;101270.44;1018362;29;735;-60
2022/02/07 04:36:11;;;;;;;;;;;;;;;12.02;60.55;101259.75;1018319;29;738;-61
2022/02/07 04:37:02;;;;;;;;;;;;;;;12.02;60.93;101263.28;1018360;29;715;-61
2022/02/07 04:37:52;;;;;;;;;;;;;;;12.01;60.21;101258.03;1018235;29;905;-61
2022/02/07 04:38:42;;;;;;;;;;;;;;;12.00;61.02;101257.19;1018182;29;714;-60
2022/02/07 04:39:33;;;;;;;;;;;;;;;11.99;61.00;101260.84;1018292;29;746;-60
2022/02/07 04:40:23;;;;;;;;;;;;;;;11.99;61.06;101268.84;1018191;29;611;-60
2022/02/07 04:41:14;;;;;;;;;;;;;;;12.01;61.50;101266.91;1018212;29;810;-60
2022/02/07 04:42:08;;;;;;;;;;;;;;;12.02;60.47;101278.47;1018308;29;816;-60
2022/02/07 04:42:58;;;;;;;;;;;;;;;12.02;60.05;101273.97;1018236;29;947;-60
2022/02/07 04:44:00;;;;;;;;;;;;;;;12.01;60.91;101274.94;1018121;29;992;-60
2022/02/07 04:45:52;;;;;;;;;;;;;;;11.99;60.46;101276.88;1017687;29;612;-60
2022/02/07 04:50:02;;;;;;;;;;;;;;;12.00;61.22;101286.56;1017202;29;726;-60
2022/02/07 04:57:05;;;;;;;;;;;;;;;12.03;61.26;101312.22;1017147;29;809;-59
2022/02/07 04:58:38;;;;;;;;;;;;;;;12.01;60.69;101325.69;1017637;29;647;-60
2022/02/07 05:00:25;;;;;;;;;;;;;;;12.00;60.39;101329.31;1018200;29;1982;-60
2022/02/07 05:00:50;;;;;;;;;;;;;;;12.00;61.16;101331.97;1016259;29;1134;-60
2022/02/07 05:01:49;;;;;;;;;;;;;;;12.00;61.36;101315.94;1017549;29;1706;-60
2022/02/07 05:03:34;;;;;;;;;;;;;;;11.98;61.45;101344.59;1022077;29;744;-59
2022/02/07 05:04:31;;;;;;;;;;;;;;;11.97;60.95;101353.56;1021563;29;646;-60
2022/02/07 05:13:39;;;;;;;;;;;;;;;11.96;60.88;101350.97;1022123;29;716;-60
2022/02/07 05:14:34;;;;;;;;;;;;;;;11.99;61.23;101373.03;1022518;28;709;-60
2022/02/07 05:15:24;;;;;;;;;;;;;;;11.99;60.39;101375.69;1022113;29;682;-60
2022/02/07 05:16:26;;;;;;;;;;;;;;;11.98;60.01;101373.97;1021421;29;738;-60
2022/02/07 05:17:19;;;;;;;;;;;;;;;11.97;61.03;101380.28;1022158;29;751;-59
2022/02/07 05:18:09;;;;;;;;;;;;;;;11.99;60.99;101382.84;1021983;29;753;-59
2022/02/07 05:19:04;;;;;;;;;;;;;;;12.03;60.99;101379.88;1021618;29;725;-59
2022/02/07 05:19:54;;;;;;;;;;;;;;;12.04;61.70;101392.28;1021460;29;669;-59
2022/02/07 05:20:44;;;;;;;;;;;;;;;12.06;61.02;101394.84;1021546;29;654;-58
2022/02/07 05:21:35;;;;;;;;;;;;;;;12.07;60.94;101397.44;1021545;29;718;-58
2022/02/07 05:22:30;;;;;;;;;;;;;;;12.10;61.18;101397.25;1017515;29;741;-59
2022/02/07 05:23:20;;;;;;;;;;;;;;;12.11;60.42;101398.97;1016703;29;805;-58
2022/02/07 05:24:10;;;;;;;;;;;;;;;12.14;60.72;101398.78;1019420;29;1856;-58
2022/02/07 05:25:01;;;;;;;;;;;;;;;12.19;60.12;101406.47;1021580;29;779;-57
2022/02/07 05:25:51;;;;;;;;;;;;;;;12.21;60.25;101398.38;1021533;29;698;-58
2022/02/07 05:26:42;;;;;;;;;;;;;;;12.27;60.14;101414.88;1021395;29;907;-58
2022/02/07 05:27:32;;;;;;;;;;;;;;;12.28;60.28;101408.59;1021414;29;709;-58
2022/02/07 05:28:22;;;;;;;;;;;;;;;12.34;59.32;101416.22;1021614;29;731;-58
2022/02/07 05:29:13;;;;;;;;;;;;;;;12.36;60.09;101408.13;1021531;29;769;-58
2022/02/07 05:30:03;;;;;;;;;;;;;;;12.40;58.85;101413.16;1021504;29;742;-58
2022/02/07 05:30:54;;;;;;;;;;;;;;;12.45;58.98;101413.72;1021576;29;873;-58
2022/02/07 05:31:44;;;;;;;;;;;;;;;12.48;59.36;101412.69;1021413;29;742;-58
2022/02/07 05:32:35;;;;;;;;;;;;;;;12.50;59.21;101416.97;1021518;29;681;-58
2022/02/07 05:33:25;;;;;;;;;;;;;;;12.56;58.69;101420.19;1021464;29;644;-59
2022/02/07 05:34:15;;;;;;;;;;;;;;;12.60;58.42;101429.72;1021550;29;748;-59
2022/02/07 05:35:06;;;;;;;;;;;;;;;12.64;58.82;101423.25;1021345;29;737;-59
2022/02/07 05:35:56;;;;;;;;;;;;;;;12.65;58.85;101420.47;1021480;29;744;-59
2022/02/07 05:36:47;;;;;;;;;;;;;;;12.67;58.35;101423.91;1017599;29;662;-58
2022/02/07 05:37:38;;;;;;;;;;;;;;;12.68;58.52;101441.66;1016508;29;671;-59
2022/02/07 05:38:29;;;;;;;;;;;;;;;12.69;58.04;101434.50;1017529;29;776;-59
2022/02/07 05:39:20;;;;;;;;;;;;;;;12.71;58.78;101429.94;1016325;29;1962;-60
2022/02/07 05:40:21;;;;;;;;;;;;;;;12.74;58.04;101430.56;1017550;29;700;-60
2022/02/07 05:41:12;;;;;;;;;;;;;;;12.78;57.78;101432.09;1016993;29;814;-60
2022/02/07 05:42:05;;;;;;;;;;;;;;;12.81;58.58;101434.56;1017105;29;762;-61
2022/02/07 05:42:56;;;;;;;;;;;;;;;12.85;57.75;101433.41;1017031;29;717;-61
2022/02/07 05:43:48;;;;;;;;;;;;;;;12.89;58.33;101443.91;1016778;29;887;-62
2022/02/07 05:44:39;;;;;;;;;;;;;;;12.91;57.59;101442.84;1017073;29;623;-61
2022/02/07 05:45:29;;;;;;;;;;;;;;;12.92;58.34;101443.69;1016912;29;945;-60
2022/02/07 05:46:20;;;;;;;;;;;;;;;12.92;58.08;101439.19;1020355;29;1581;-60
2022/02/07 05:47:10;;;;;;;;;;;;;;;12.93;57.85;101442.75;1019257;29;1415;-60
2022/02/07 05:48:01;;;;;;;;;;;;;;;12.95;58.44;101454.19;1018091;29;1446;-60
2022/02/07 05:48:51;;;;;;;;;;;;;;;12.95;58.58;101451.53;1017547;29;782;-60
2022/02/07 05:49:42;;;;;;;;;;;;;;;12.96;58.83;101453.25;1021794;29;1493;-60
2022/02/07 05:50:32;;;;;;;;;;;;;;;12.95;57.90;101454.19;1020362;29;1352;-60
2022/02/07 05:51:22;;;;;;;;;;;;;;;12.97;58.11;101457.63;1021309;29;1356;-61
2022/02/07 05:52:13;;;;;;;;;;;;;;;12.97;58.08;101454.97;1021490;29;782;-61
2022/02/07 05:53:03;;;;;;;;;;;;;;;12.96;58.67;101466.63;1021547;29;737;-60
2022/02/07 05:53:54;;;;;;;;;;;;;;;12.97;58.29;101460.31;1021390;29;826;-60
2022/02/07 05:54:45;;;;;;;;;;;;;;;12.99;58.63;101456.59;1021472;29;710;-60
2022/02/07 05:55:36;;;;;;;;;;;;;;;12.96;58.44;101464.81;1021893;29;869;-61
2022/02/07 05:56:26;;;;;;;;;;;;;;;12.97;58.40;101465.66;1021512;29;705;-61
2022/02/07 05:57:17;;;;;;;;;;;;;;;12.97;58.91;101463.00;1021529;29;694;-61
2022/02/07 05:58:07;;;;;;;;;;;;;;;13.00;58.72;101462.78;1021312;29;917;-59
2022/02/07 05:58:57;;;;;;;;;;;;;;;12.99;58.42;101469.09;1021456;29;717;-59
2022/02/07 05:59:48;;;;;;;;;;;;;;;13.00;58.05;101462.78;1020994;29;1837;-61
2022/02/07 06:00:38;;;;;;;;;;;;;;;13.01;58.75;101469.88;1018064;29;600;-59
2022/02/07 06:01:29;;;;;;;;;;;;;;;13.02;58.29;101475.13;1018668;29;615;-59